sensor_id;sensor_type;location;lat;lon;timestamp;P1;durP1;ratioP1;P2;durP2;ratioP2
29414;SDS011;20303;48.302;11.914;2023-03-01T00:04:05;19.17;;;11.40;;
29414;SDS011;20303;48.302;11.914;2023-03-01T00:14:06;18.02;;;11.18;;
29414;SDS011;20303;48.302;11.914;2023-03-01T00:24:07;17.05;;;10.68;;
29414;SDS011;20303;48.302;11.914;2023-03-01T00:34:09;15.05;;;9.90;;
29414;SDS011;20303;48.302;11.914;2023-03-01T00:44:10;15.48;;;9.77;;
29414;SDS011;20303;48.302;11.914;2023-03-01T00:54:11;14.70;;;9.55;;
29414;SDS011;20303;48.302;11.914;2023-03-01T01:14:13;12.13;;;8.38;;
29414;SDS011;20303;48.302;11.914;2023-03-01T01:24:15;12.82;;;7.90;;
29414;SDS011;20303;48.302;11.914;2023-03-01T01:34:18;12.25;;;8.05;;
29414;SDS011;20303;48.302;11.914;2023-03-01T01:44:24;13.35;;;8.40;;
29414;SDS011;20303;48.302;11.914;2023-03-01T01:54:38;11.10;;;7.68;;
29414;SDS011;20303;48.302;11.914;2023-03-01T02:04:42;11.57;;;7.53;;
29414;SDS011;20303;48.302;11.914;2023-03-01T02:14:43;10.30;;;7.22;;
29414;SDS011;20303;48.302;11.914;2023-03-01T02:24:54;9.70;;;6.90;;
29414;SDS011;20303;48.302;11.914;2023-03-01T02:35:03;10.23;;;6.65;;
29414;SDS011;20303;48.302;11.914;2023-03-01T02:45:06;9.68;;;6.63;;
29414;SDS011;20303;48.302;11.914;2023-03-01T02:55:08;7.93;;;6.03;;
29414;SDS011;20303;48.302;11.914;2023-03-01T03:05:16;8.85;;;6.00;;
29414;SDS011;20303;48.302;11.914;2023-03-01T03:15:19;9.45;;;6.22;;
29414;SDS011;20303;48.302;11.914;2023-03-01T03:25:21;7.20;;;5.80;;
29414;SDS011;20303;48.302;11.914;2023-03-01T03:35:23;8.27;;;5.65;;
29414;SDS011;20303;48.302;11.914;2023-03-01T03:45:28;7.65;;;5.70;;
29414;SDS011;20303;48.302;11.914;2023-03-01T03:55:29;8.10;;;5.57;;
29414;SDS011;20303;48.302;11.914;2023-03-01T04:05:31;7.10;;;5.75;;
29414;SDS011;20303;48.302;11.914;2023-03-01T04:15:32;6.65;;;5.25;;
29414;SDS011;20303;48.302;11.914;2023-03-01T04:25:33;8.00;;;5.50;;
29414;SDS011;20303;48.302;11.914;2023-03-01T04:45:36;12.17;;;5.37;;
29414;SDS011;20303;48.302;11.914;2023-03-01T05:05:38;8.60;;;5.13;;
29414;SDS011;20303;48.302;11.914;2023-03-01T05:15:39;6.88;;;5.38;;
29414;SDS011;20303;48.302;11.914;2023-03-01T05:35:42;6.50;;;4.90;;
29414;SDS011;20303;48.302;11.914;2023-03-01T05:45:44;6.15;;;4.63;;
29414;SDS011;20303;48.302;11.914;2023-03-01T05:55:45;5.78;;;4.70;;
29414;SDS011;20303;48.302;11.914;2023-03-01T06:05:47;5.80;;;4.70;;
29414;SDS011;20303;48.302;11.914;2023-03-01T06:25:49;6.70;;;4.63;;
29414;SDS011;20303;48.302;11.914;2023-03-01T06:45:51;8.40;;;5.90;;
29414;SDS011;20303;48.302;11.914;2023-03-01T07:05:57;12.38;;;7.03;;
29414;SDS011;20303;48.302;11.914;2023-03-01T07:25:59;12.60;;;7.50;;
29414;SDS011;20303;48.302;11.914;2023-03-01T07:36:01;11.38;;;7.50;;
29414;SDS011;20303;48.302;11.914;2023-03-01T07:46:03;10.15;;;7.72;;
29414;SDS011;20303;48.302;11.914;2023-03-01T07:56:08;11.63;;;7.50;;
29414;SDS011;20303;48.302;11.914;2023-03-01T08:06:11;10.98;;;7.57;;
29414;SDS011;20303;48.302;11.914;2023-03-01T08:16:14;10.07;;;7.63;;
29414;SDS011;20303;48.302;11.914;2023-03-01T08:26:17;9.98;;;7.40;;
29414;SDS011;20303;48.302;11.914;2023-03-01T08:36:19;12.18;;;7.78;;
29414;SDS011;20303;48.302;11.914;2023-03-01T08:46:28;12.32;;;7.50;;
29414;SDS011;20303;48.302;11.914;2023-03-01T08:56:30;9.80;;;7.35;;
29414;SDS011;20303;48.302;11.914;2023-03-01T09:06:32;10.68;;;7.25;;
29414;SDS011;20303;48.302;11.914;2023-03-01T09:16:34;9.10;;;7.05;;
29414;SDS011;20303;48.302;11.914;2023-03-01T09:26:37;9.13;;;7.13;;
29414;SDS011;20303;48.302;11.914;2023-03-01T09:46:43;9.03;;;6.40;;
29414;SDS011;20303;48.302;11.914;2023-03-01T10:07:14;8.63;;;6.80;;
29414;SDS011;20303;48.302;11.914;2023-03-01T10:27:53;8.45;;;6.35;;
29414;SDS011;20303;48.302;11.914;2023-03-01T10:37:56;7.90;;;6.30;;
29414;SDS011;20303;48.302;11.914;2023-03-01T10:58:19;7.53;;;5.90;;
29414;SDS011;20303;48.302;11.914;2023-03-01T11:08:32;7.75;;;5.78;;
29414;SDS011;20303;48.302;11.914;2023-03-01T11:18:43;8.15;;;5.85;;
29414;SDS011;20303;48.302;11.914;2023-03-01T11:29:31;8.57;;;5.88;;
29414;SDS011;20303;48.302;11.914;2023-03-01T11:39:51;7.82;;;5.70;;
29414;SDS011;20303;48.302;11.914;2023-03-01T12:10:47;7.50;;;5.80;;
29414;SDS011;20303;48.302;11.914;2023-03-01T12:41:51;7.22;;;5.60;;
29414;SDS011;20303;48.302;11.914;2023-03-01T12:51:59;7.95;;;5.75;;
29414;SDS011;20303;48.302;11.914;2023-03-01T13:02:16;7.63;;;5.75;;
29414;SDS011;20303;48.302;11.914;2023-03-01T13:23:00;8.52;;;5.35;;
29414;SDS011;20303;48.302;11.914;2023-03-01T13:43:28;8.80;;;5.60;;
29414;SDS011;20303;48.302;11.914;2023-03-01T13:53:31;7.95;;;5.70;;
29414;SDS011;20303;48.302;11.914;2023-03-01T14:03:40;13.60;;;6.28;;
29414;SDS011;20303;48.302;11.914;2023-03-01T14:24:01;12.00;;;6.80;;
29414;SDS011;20303;48.302;11.914;2023-03-01T14:34:06;11.27;;;6.90;;
29414;SDS011;20303;48.302;11.914;2023-03-01T14:44:19;11.50;;;7.10;;
29414;SDS011;20303;48.302;11.914;2023-03-01T14:54:37;11.02;;;7.15;;
29414;SDS011;20303;48.302;11.914;2023-03-01T15:04:40;11.07;;;6.85;;
29414;SDS011;20303;48.302;11.914;2023-03-01T15:14:43;10.38;;;6.63;;
29414;SDS011;20303;48.302;11.914;2023-03-01T15:24:47;11.13;;;6.80;;
29414;SDS011;20303;48.302;11.914;2023-03-01T15:34:49;12.93;;;7.00;;
29414;SDS011;20303;48.302;11.914;2023-03-01T15:45:31;11.05;;;6.95;;
29414;SDS011;20303;48.302;11.914;2023-03-01T15:55:28;11.13;;;7.13;;
29414;SDS011;20303;48.302;11.914;2023-03-01T16:05:31;9.95;;;7.22;;
29414;SDS011;20303;48.302;11.914;2023-03-01T16:15:34;10.48;;;7.13;;
29414;SDS011;20303;48.302;11.914;2023-03-01T16:25:35;10.25;;;6.90;;
29414;SDS011;20303;48.302;11.914;2023-03-01T16:35:40;12.07;;;6.88;;
29414;SDS011;20303;48.302;11.914;2023-03-01T16:45:43;12.43;;;6.80;;
29414;SDS011;20303;48.302;11.914;2023-03-01T16:55:52;10.07;;;6.90;;
29414;SDS011;20303;48.302;11.914;2023-03-01T17:05:54;10.02;;;6.70;;
29414;SDS011;20303;48.302;11.914;2023-03-01T17:15:55;10.57;;;6.78;;
29414;SDS011;20303;48.302;11.914;2023-03-01T17:25:56;9.35;;;6.63;;
29414;SDS011;20303;48.302;11.914;2023-03-01T17:35:58;10.13;;;6.68;;
29414;SDS011;20303;48.302;11.914;2023-03-01T17:45:59;10.13;;;6.55;;
29414;SDS011;20303;48.302;11.914;2023-03-01T17:56:02;8.02;;;6.13;;
29414;SDS011;20303;48.302;11.914;2023-03-01T18:06:15;10.88;;;6.70;;
29414;SDS011;20303;48.302;11.914;2023-03-01T18:16:18;15.13;;;7.13;;
29414;SDS011;20303;48.302;11.914;2023-03-01T18:26:20;10.98;;;6.35;;
29414;SDS011;20303;48.302;11.914;2023-03-01T18:36:22;11.52;;;6.47;;
29414;SDS011;20303;48.302;11.914;2023-03-01T18:46:25;12.40;;;6.45;;
29414;SDS011;20303;48.302;11.914;2023-03-01T18:56:27;11.88;;;6.55;;
29414;SDS011;20303;48.302;11.914;2023-03-01T19:06:31;14.50;;;7.35;;
29414;SDS011;20303;48.302;11.914;2023-03-01T19:16:33;13.07;;;6.70;;
29414;SDS011;20303;48.302;11.914;2023-03-01T19:26:34;11.38;;;6.90;;
29414;SDS011;20303;48.302;11.914;2023-03-01T19:36:35;11.13;;;6.32;;
29414;SDS011;20303;48.302;11.914;2023-03-01T19:46:37;10.20;;;6.20;;
29414;SDS011;20303;48.302;11.914;2023-03-01T19:56:39;13.02;;;6.35;;
29414;SDS011;20303;48.302;11.914;2023-03-01T20:06:40;10.20;;;6.72;;
29414;SDS011;20303;48.302;11.914;2023-03-01T20:16:43;9.95;;;6.45;;
29414;SDS011;20303;48.302;11.914;2023-03-01T20:26:44;11.05;;;6.32;;
29414;SDS011;20303;48.302;11.914;2023-03-01T20:36:45;10.77;;;6.30;;
29414;SDS011;20303;48.302;11.914;2023-03-01T20:46:46;13.00;;;6.25;;
29414;SDS011;20303;48.302;11.914;2023-03-01T20:56:47;11.45;;;6.13;;
29414;SDS011;20303;48.302;11.914;2023-03-01T21:06:48;9.38;;;6.07;;
29414;SDS011;20303;48.302;11.914;2023-03-01T21:16:49;11.07;;;6.35;;
29414;SDS011;20303;48.302;11.914;2023-03-01T21:26:50;10.93;;;6.05;;
29414;SDS011;20303;48.302;11.914;2023-03-01T21:36:51;10.30;;;5.93;;
29414;SDS011;20303;48.302;11.914;2023-03-01T21:46:53;10.25;;;6.10;;
29414;SDS011;20303;48.302;11.914;2023-03-01T21:56:54;9.48;;;6.10;;
29414;SDS011;20303;48.302;11.914;2023-03-01T22:06:55;11.90;;;5.85;;
29414;SDS011;20303;48.302;11.914;2023-03-01T22:16:57;10.20;;;6.20;;
29414;SDS011;20303;48.302;11.914;2023-03-01T22:26:58;10.50;;;6.38;;
29414;SDS011;20303;48.302;11.914;2023-03-01T22:36:59;8.98;;;5.60;;
29414;SDS011;20303;48.302;11.914;2023-03-01T22:47:00;9.82;;;6.18;;
29414;SDS011;20303;48.302;11.914;2023-03-01T22:57:01;10.80;;;6.25;;
29414;SDS011;20303;48.302;11.914;2023-03-01T23:07:02;9.23;;;5.90;;
29414;SDS011;20303;48.302;11.914;2023-03-01T23:17:03;12.75;;;6.38;;
29414;SDS011;20303;48.302;11.914;2023-03-01T23:27:06;11.88;;;6.45;;
29414;SDS011;20303;48.302;11.914;2023-03-01T23:37:08;13.60;;;6.80;;
29414;SDS011;20303;48.302;11.914;2023-03-01T23:47:09;13.30;;;6.28;;
29414;SDS011;20303;48.302;11.914;2023-03-01T23:57:10;10.73;;;6.47;;
